sensor_id;sensor_type;location;lat;lon;timestamp;pressure;altitude;pressure_sealevel;temperature
84287;BMP280;74445;55.252;61.092;2023-12-28T01:09:20;103382.59;;;-5.67
84287;BMP280;74445;55.252;61.092;2023-12-28T01:11:46;103988.25;;;-5.69
84287;BMP280;74445;55.252;61.092;2023-12-28T01:14:13;104439.56;;;-5.69
84287;BMP280;74445;55.252;61.092;2023-12-28T01:16:39;105409.06;;;-5.70
84287;BMP280;74445;55.252;61.092;2023-12-28T01:19:06;106163.88;;;-5.69
84287;BMP280;74445;55.252;61.092;2023-12-28T01:21:32;107012.41;;;-5.61
84287;BMP280;74445;55.252;61.092;2023-12-28T01:23:59;106755.47;;;-5.62
84287;BMP280;74445;55.252;61.092;2023-12-28T01:26:27;106491.41;;;-5.61
84287;BMP280;74445;55.252;61.092;2023-12-28T01:28:54;107062.91;;;-5.57
84287;BMP280;74445;55.252;61.092;2023-12-28T01:31:20;107643.75;;;-5.56
84287;BMP280;74445;55.252;61.092;2023-12-28T01:33:46;107532.63;;;-5.47
84287;BMP280;74445;55.252;61.092;2023-12-28T01:36:20;107083.50;;;-5.43
84287;BMP280;74445;55.252;61.092;2023-12-28T01:38:47;107168.75;;;-5.42
84287;BMP280;74445;55.252;61.092;2023-12-28T01:41:14;107419.41;;;-5.45
84287;BMP280;74445;55.252;61.092;2023-12-28T01:43:43;108248.81;;;-5.45
84287;BMP280;74445;55.252;61.092;2023-12-28T01:46:13;108614.78;;;-5.39
84287;BMP280;74445;55.252;61.092;2023-12-28T01:48:41;108685.34;;;-5.38
84287;BMP280;74445;55.252;61.092;2023-12-28T01:51:08;109603.78;;;-5.39
84287;BMP280;74445;55.252;61.092;2023-12-28T01:53:35;110348.34;;;-5.39
84287;BMP280;74445;55.252;61.092;2023-12-28T01:56:02;110684.72;;;-5.35
84287;BMP280;74445;55.252;61.092;2023-12-28T01:58:32;112127.88;;;-5.35
84287;BMP280;74445;55.252;61.092;2023-12-28T02:01:01;112788.13;;;-5.35
84287;BMP280;74445;55.252;61.092;2023-12-28T02:03:28;114037.97;;;-5.36
84287;BMP280;74445;55.252;61.092;2023-12-28T02:05:55;115092.38;;;-5.34
84287;BMP280;74445;55.252;61.092;2023-12-28T02:08:22;114032.38;;;-5.30
84287;BMP280;74445;55.252;61.092;2023-12-28T02:10:48;114109.44;;;-5.29
84287;BMP280;74445;55.252;61.092;2023-12-28T02:13:15;115541.53;;;-5.31
84287;BMP280;74445;55.252;61.092;2023-12-28T02:15:42;116432.56;;;-5.34
84287;BMP280;74445;55.252;61.092;2023-12-28T02:18:12;117243.09;;;-5.32
84287;BMP280;74445;55.252;61.092;2023-12-28T02:20:43;117559.25;;;-5.34
84287;BMP280;74445;55.252;61.092;2023-12-28T02:23:10;116735.03;;;-5.30
84287;BMP280;74445;55.252;61.092;2023-12-28T02:25:38;118208.81;;;-5.32
84287;BMP280;74445;55.252;61.092;2023-12-28T02:28:05;120288.25;;;-5.35
84287;BMP280;74445;55.252;61.092;2023-12-28T02:30:32;118933.41;;;-5.33
84287;BMP280;74445;55.252;61.092;2023-12-28T02:33:05;119345.38;;;-5.32
84287;BMP280;74445;55.252;61.092;2023-12-28T02:35:37;122441.03;;;-5.35
84287;BMP280;74445;55.252;61.092;2023-12-28T02:38:07;121472.66;;;-5.32
84287;BMP280;74445;55.252;61.092;2023-12-28T02:40:38;120803.53;;;-5.32
84287;BMP280;74445;55.252;61.092;2023-12-28T02:43:06;120503.63;;;-5.31
84287;BMP280;74445;55.252;61.092;2023-12-28T02:45:32;121560.44;;;-5.34
84287;BMP280;74445;55.252;61.092;2023-12-28T02:47:59;122614.69;;;-5.37
84287;BMP280;74445;55.252;61.092;2023-12-28T02:50:26;122362.88;;;-5.36
84287;BMP280;74445;55.252;61.092;2023-12-28T02:52:52;123690.59;;;-5.39
84287;BMP280;74445;55.252;61.092;2023-12-28T02:55:19;123695.78;;;-5.36
84287;BMP280;74445;55.252;61.092;2023-12-28T02:57:46;123691.59;;;-5.38
84287;BMP280;74445;55.252;61.092;2023-12-28T03:00:13;123068.44;;;-5.36
84287;BMP280;74445;55.252;61.092;2023-12-28T03:02:40;124941.06;;;-5.42
84287;BMP280;74445;55.252;61.092;2023-12-28T03:05:07;124932.63;;;-5.46
84287;BMP280;74445;55.252;61.092;2023-12-28T03:07:34;126810.13;;;-5.49
84287;BMP280;74445;55.252;61.092;2023-12-28T03:10:01;128376.59;;;-5.51
84287;BMP280;74445;55.252;61.092;2023-12-28T03:12:31;129318.00;;;-5.52
84287;BMP280;74445;55.252;61.092;2023-12-28T03:14:59;129006.03;;;-5.51
84287;BMP280;74445;55.252;61.092;2023-12-28T03:17:26;131512.72;;;-5.54
84287;BMP280;74445;55.252;61.092;2023-12-28T03:19:55;131203.00;;;-5.52
84287;BMP280;74445;55.252;61.092;2023-12-28T03:22:21;130891.03;;;-5.51
84287;BMP280;74445;55.252;61.092;2023-12-28T03:24:48;131827.97;;;-5.53
84287;BMP280;74445;55.252;61.092;2023-12-28T03:27:14;131522.69;;;-5.49
84287;BMP280;74445;55.252;61.092;2023-12-28T03:29:41;130892.13;;;-5.50
84287;BMP280;74445;55.252;61.092;2023-12-28T03:32:10;131831.31;;;-5.52
84287;BMP280;74445;55.252;61.092;2023-12-28T03:34:37;132145.50;;;-5.52
84287;BMP280;74445;55.252;61.092;2023-12-28T03:37:04;133395.44;;;-5.55
84287;BMP280;74445;55.252;61.092;2023-12-28T03:39:30;134021.53;;;-5.56
84287;BMP280;74445;55.252;61.092;2023-12-28T03:41:57;135897.34;;;-5.60
84287;BMP280;74445;55.252;61.092;2023-12-28T03:44:24;135587.78;;;-5.58
84287;BMP280;74445;55.252;61.092;2023-12-28T03:46:50;134953.75;;;-5.60
84287;BMP280;74445;55.252;61.092;2023-12-28T03:49:19;136518.75;;;-5.63
84287;BMP280;74445;55.252;61.092;2023-12-28T03:51:49;135579.75;;;-5.61
84287;BMP280;74445;55.252;61.092;2023-12-28T03:54:16;134638.50;;;-5.61
84287;BMP280;74445;55.252;61.092;2023-12-28T03:56:43;135263.34;;;-5.62
84287;BMP280;74445;55.252;61.092;2023-12-28T03:59:10;135574.06;;;-5.64
84287;BMP280;74445;55.252;61.092;2023-12-28T04:01:37;135575.19;;;-5.63
84287;BMP280;74445;55.252;61.092;2023-12-28T04:04:03;136196.56;;;-5.66
84287;BMP280;74445;55.252;61.092;2023-12-28T04:06:32;135889.31;;;-5.63
84287;BMP280;74445;55.252;61.092;2023-12-28T04:08:58;135883.63;;;-5.66
84287;BMP280;74445;55.252;61.092;2023-12-28T04:11:25;136509.56;;;-5.67
84287;BMP280;74445;55.252;61.092;2023-12-28T04:13:52;136502.66;;;-5.70
84287;BMP280;74445;55.252;61.092;2023-12-28T04:16:18;136813.28;;;-5.71
84287;BMP280;74445;55.252;61.092;2023-12-28T04:18:45;136816.75;;;-5.70
84287;BMP280;74445;55.252;61.092;2023-12-28T04:21:12;137753.25;;;-5.72
84287;BMP280;74445;55.252;61.092;2023-12-28T04:23:40;137754.44;;;-5.72
84287;BMP280;74445;55.252;61.092;2023-12-28T04:26:07;138069.66;;;-5.71
84287;BMP280;74445;55.252;61.092;2023-12-28T04:28:34;137757.88;;;-5.70
84287;BMP280;74445;55.252;61.092;2023-12-28T04:31:03;138384.97;;;-5.71
84287;BMP280;74445;55.252;61.092;2023-12-28T04:33:30;138077.81;;;-5.68
84287;BMP280;74445;55.252;61.092;2023-12-28T04:35:57;136838.63;;;-5.60
84287;BMP280;74445;55.252;61.092;2023-12-28T04:38:23;137151.66;;;-5.61
84287;BMP280;74445;55.252;61.092;2023-12-28T04:40:51;137477.38;;;-5.56
84287;BMP280;74445;55.252;61.092;2023-12-28T04:43:18;138106.84;;;-5.55
84287;BMP280;74445;55.252;61.092;2023-12-28T04:45:45;138110.38;;;-5.54
84287;BMP280;74445;55.252;61.092;2023-12-28T04:48:11;137810.09;;;-5.48
84287;BMP280;74445;55.252;61.092;2023-12-28T04:50:37;136874.38;;;-5.45
84287;BMP280;74445;55.252;61.092;2023-12-28T04:53:04;137190.91;;;-5.44
84287;BMP280;74445;55.252;61.092;2023-12-28T04:55:30;136878.97;;;-5.43
84287;BMP280;74445;55.252;61.092;2023-12-28T04:57:58;135952.28;;;-5.36
84287;BMP280;74445;55.252;61.092;2023-12-28T05:00:24;135952.28;;;-5.36
84287;BMP280;74445;55.252;61.092;2023-12-28T05:02:51;136268.84;;;-5.35
84287;BMP280;74445;55.252;61.092;2023-12-28T05:05:17;136899.72;;;-5.34
84287;BMP280;74445;55.252;61.092;2023-12-28T05:07:44;137848.34;;;-5.31
84287;BMP280;74445;55.252;61.092;2023-12-28T05:10:10;137856.50;;;-5.28
84287;BMP280;74445;55.252;61.092;2023-12-28T05:12:37;137239.41;;;-5.23
84287;BMP280;74445;55.252;61.092;2023-12-28T05:15:05;137563.00;;;-5.19
84287;BMP280;74445;55.252;61.092;2023-12-28T05:17:32;136632.56;;;-5.13
84287;BMP280;74445;55.252;61.092;2023-12-28T05:19:58;136640.63;;;-5.10
84287;BMP280;74445;55.252;61.092;2023-12-28T05:22:25;136646.34;;;-5.07
84287;BMP280;74445;55.252;61.092;2023-12-28T05:24:51;136662.47;;;-5.01
84287;BMP280;74445;55.252;61.092;2023-12-28T05:27:18;136045.00;;;-4.96
84287;BMP280;74445;55.252;61.092;2023-12-28T05:29:44;136048.41;;;-4.94
84287;BMP280;74445;55.252;61.092;2023-12-28T05:32:12;135749.94;;;-4.87
84287;BMP280;74445;55.252;61.092;2023-12-28T05:34:39;136072.47;;;-4.84
84287;BMP280;74445;55.252;61.092;2023-12-28T05:37:05;135769.38;;;-4.79
84287;BMP280;74445;55.252;61.092;2023-12-28T05:39:31;135156.19;;;-4.72
84287;BMP280;74445;55.252;61.092;2023-12-28T05:41:58;133915.84;;;-4.64
84287;BMP280;74445;55.252;61.092;2023-12-28T05:44:24;133301.16;;;-4.57
84287;BMP280;74445;55.252;61.092;2023-12-28T05:46:51;132680.78;;;-4.53
84287;BMP280;74445;55.252;61.092;2023-12-28T05:49:20;131755.66;;;-4.45
84287;BMP280;74445;55.252;61.092;2023-12-28T05:51:46;131131.72;;;-4.42
84287;BMP280;74445;55.252;61.092;2023-12-28T05:54:13;130519.88;;;-4.34
84287;BMP280;74445;55.252;61.092;2023-12-28T05:56:39;129597.44;;;-4.24
84287;BMP280;74445;55.252;61.092;2023-12-28T05:59:05;128362.00;;;-4.13
84287;BMP280;74445;55.252;61.092;2023-12-28T06:01:40;126501.69;;;-4.00
84287;BMP280;74445;55.252;61.092;2023-12-28T06:04:07;124327.69;;;-3.85
84287;BMP280;74445;55.252;61.092;2023-12-28T06:06:35;120003.19;;;-3.69
84287;BMP280;74445;55.252;61.092;2023-12-28T06:09:02;117810.53;;;-3.54
84287;BMP280;74445;55.252;61.092;2023-12-28T06:11:32;114719.19;;;-3.41
84287;BMP280;74445;55.252;61.092;2023-12-28T06:13:59;112391.75;;;-3.31
84287;BMP280;74445;55.252;61.092;2023-12-28T06:16:25;110224.34;;;-3.22
84287;BMP280;74445;55.252;61.092;2023-12-28T06:18:52;108707.88;;;-3.15
84287;BMP280;74445;55.252;61.092;2023-12-28T06:21:18;108063.44;;;-3.11
84287;BMP280;74445;55.252;61.092;2023-12-28T06:23:46;106303.91;;;-3.06
84287;BMP280;74445;55.252;61.092;2023-12-28T06:26:13;103302.38;;;-3.02
84287;BMP280;74445;55.252;61.092;2023-12-28T06:28:39;97292.16;;;-2.96
84287;BMP280;74445;55.252;61.092;2023-12-28T06:31:06;99372.34;;;-2.91
84287;BMP280;74445;55.252;61.092;2023-12-28T06:33:32;98777.06;;;-2.89
84287;BMP280;74445;55.252;61.092;2023-12-28T06:36:05;99730.97;;;-2.82
84287;BMP280;74445;55.252;61.092;2023-12-28T06:38:31;98237.66;;;-2.85
84287;BMP280;74445;55.252;61.092;2023-12-28T06:41:00;97437.78;;;-2.83
84287;BMP280;74445;55.252;61.092;2023-12-28T06:43:27;96469.44;;;-2.84
84287;BMP280;74445;55.252;61.092;2023-12-28T06:45:54;90170.38;;;-2.82
84287;BMP280;74445;55.252;61.092;2023-12-28T06:48:20;92266.72;;;-2.78
84287;BMP280;74445;55.252;61.092;2023-12-28T06:50:47;94095.66;;;-2.74
84287;BMP280;74445;55.252;61.092;2023-12-28T06:53:13;91324.22;;;-2.72
84287;BMP280;74445;55.252;61.092;2023-12-28T06:55:40;86926.97;;;-2.68
84287;BMP280;74445;55.252;61.092;2023-12-28T06:58:08;85816.59;;;-2.59
84287;BMP280;74445;55.252;61.092;2023-12-28T07:00:34;86447.78;;;-2.51
84287;BMP280;74445;55.252;61.092;2023-12-28T07:03:01;83426.94;;;-2.44
84287;BMP280;74445;55.252;61.092;2023-12-28T07:05:27;80447.69;;;-2.34
84287;BMP280;74445;55.252;61.092;2023-12-28T07:07:54;75013.25;;;-2.26
84287;BMP280;74445;55.252;61.092;2023-12-28T07:10:20;75011.94;;;-2.17
84287;BMP280;74445;55.252;61.092;2023-12-28T07:12:46;73402.72;;;-2.11
84287;BMP280;74445;55.252;61.092;2023-12-28T07:15:14;71179.16;;;-2.04
84287;BMP280;74445;55.252;61.092;2023-12-28T07:17:41;65925.84;;;-2.03
84287;BMP280;74445;55.252;61.092;2023-12-28T07:20:08;68094.56;;;-2.00
84287;BMP280;74445;55.252;61.092;2023-12-28T07:22:37;69838.13;;;-1.98
84287;BMP280;74445;55.252;61.092;2023-12-28T07:25:05;70680.94;;;-1.94
84287;BMP280;74445;55.252;61.092;2023-12-28T07:27:32;70148.81;;;-1.94
84287;BMP280;74445;55.252;61.092;2023-12-28T07:29:58;68494.50;;;-1.95
84287;BMP280;74445;55.252;61.092;2023-12-28T07:32:26;66398.28;;;-1.97
84287;BMP280;74445;55.252;61.092;2023-12-28T07:34:54;68084.00;;;-1.98
84287;BMP280;74445;55.252;61.092;2023-12-28T07:37:21;67566.09;;;-1.98
84287;BMP280;74445;55.252;61.092;2023-12-28T07:39:47;67361.63;;;-2.02
84287;BMP280;74445;55.252;61.092;2023-12-28T07:42:14;68710.41;;;-1.98
84287;BMP280;74445;55.252;61.092;2023-12-28T07:44:41;68494.66;;;-1.99
84287;BMP280;74445;55.252;61.092;2023-12-28T07:47:07;67119.72;;;-1.98
84287;BMP280;74445;55.252;61.092;2023-12-28T07:49:36;65838.53;;;-1.91
84287;BMP280;74445;55.252;61.092;2023-12-28T07:52:02;65495.34;;;-1.87
84287;BMP280;74445;55.252;61.092;2023-12-28T07:54:29;65877.50;;;-1.85
84287;BMP280;74445;55.252;61.092;2023-12-28T07:56:55;66832.44;;;-1.80
84287;BMP280;74445;55.252;61.092;2023-12-28T07:59:22;66689.53;;;-1.74
84287;BMP280;74445;55.252;61.092;2023-12-28T08:01:48;66787.75;;;-1.76
84287;BMP280;74445;55.252;61.092;2023-12-28T08:04:15;64979.06;;;-1.79
84287;BMP280;74445;55.252;61.092;2023-12-28T08:06:43;64555.53;;;-1.80
84287;BMP280;74445;55.252;61.092;2023-12-28T08:09:10;64286.88;;;-1.82
84287;BMP280;74445;55.252;61.092;2023-12-28T08:11:36;64787.41;;;-1.80
84287;BMP280;74445;55.252;61.092;2023-12-28T08:14:03;64339.47;;;-1.84
84287;BMP280;74445;55.252;61.092;2023-12-28T08:16:29;64695.25;;;-1.90
84287;BMP280;74445;55.252;61.092;2023-12-28T08:18:56;65103.75;;;-1.93
84287;BMP280;74445;55.252;61.092;2023-12-28T08:21:22;64476.44;;;-2.02
84287;BMP280;74445;55.252;61.092;2023-12-28T08:23:50;64361.88;;;-2.03
84287;BMP280;74445;55.252;61.092;2023-12-28T08:26:18;64287.19;;;-2.08
84287;BMP280;74445;55.252;61.092;2023-12-28T08:28:44;64206.06;;;-2.10
84287;BMP280;74445;55.252;61.092;2023-12-28T08:31:10;64444.09;;;-2.11
84287;BMP280;74445;55.252;61.092;2023-12-28T08:33:37;64320.69;;;-2.16
84287;BMP280;74445;55.252;61.092;2023-12-28T08:36:07;64186.44;;;-2.17
84287;BMP280;74445;55.252;61.092;2023-12-28T08:38:33;64503.88;;;-2.17
84287;BMP280;74445;55.252;61.092;2023-12-28T08:41:01;64764.66;;;-2.18
84287;BMP280;74445;55.252;61.092;2023-12-28T08:43:29;65132.16;;;-2.20
84287;BMP280;74445;55.252;61.092;2023-12-28T08:45:56;64958.09;;;-2.23
84287;BMP280;74445;55.252;61.092;2023-12-28T08:48:23;64418.66;;;-2.27
84287;BMP280;74445;55.252;61.092;2023-12-28T08:50:49;64235.34;;;-2.30
84287;BMP280;74445;55.252;61.092;2023-12-28T08:53:16;64324.06;;;-2.30
84287;BMP280;74445;55.252;61.092;2023-12-28T08:55:42;64424.56;;;-2.31
84287;BMP280;74445;55.252;61.092;2023-12-28T08:58:10;65117.53;;;-2.28
84287;BMP280;74445;55.252;61.092;2023-12-28T09:00:37;65515.50;;;-2.34
84287;BMP280;74445;55.252;61.092;2023-12-28T09:03:04;65823.16;;;-2.36
84287;BMP280;74445;55.252;61.092;2023-12-28T09:05:30;65921.69;;;-2.43
84287;BMP280;74445;55.252;61.092;2023-12-28T09:07:57;66206.69;;;-2.48
84287;BMP280;74445;55.252;61.092;2023-12-28T09:10:24;66431.78;;;-2.51
84287;BMP280;74445;55.252;61.092;2023-12-28T09:12:50;66469.06;;;-2.55
84287;BMP280;74445;55.252;61.092;2023-12-28T09:15:18;66037.19;;;-2.62
84287;BMP280;74445;55.252;61.092;2023-12-28T09:17:46;66151.25;;;-2.72
84287;BMP280;74445;55.252;61.092;2023-12-28T09:20:13;67389.09;;;-2.73
84287;BMP280;74445;55.252;61.092;2023-12-28T09:22:40;67625.78;;;-2.77
84287;BMP280;74445;55.252;61.092;2023-12-28T09:25:07;68363.56;;;-2.80
84287;BMP280;74445;55.252;61.092;2023-12-28T09:27:34;68515.09;;;-2.81
84287;BMP280;74445;55.252;61.092;2023-12-28T09:30:00;68244.41;;;-2.87
84287;BMP280;74445;55.252;61.092;2023-12-28T09:32:28;69044.22;;;-2.89
84287;BMP280;74445;55.252;61.092;2023-12-28T09:34:54;69394.69;;;-2.95
84287;BMP280;74445;55.252;61.092;2023-12-28T09:37:21;70092.81;;;-2.98
84287;BMP280;74445;55.252;61.092;2023-12-28T09:39:47;70521.28;;;-3.02
84287;BMP280;74445;55.252;61.092;2023-12-28T09:42:17;70881.34;;;-3.05
84287;BMP280;74445;55.252;61.092;2023-12-28T09:44:48;71731.31;;;-3.09
84287;BMP280;74445;55.252;61.092;2023-12-28T09:47:15;72376.19;;;-3.15
84287;BMP280;74445;55.252;61.092;2023-12-28T09:49:45;73357.78;;;-3.15
84287;BMP280;74445;55.252;61.092;2023-12-28T09:52:13;74116.34;;;-3.21
84287;BMP280;74445;55.252;61.092;2023-12-28T09:54:39;74849.09;;;-3.23
84287;BMP280;74445;55.252;61.092;2023-12-28T09:57:06;75532.44;;;-3.28
84287;BMP280;74445;55.252;61.092;2023-12-28T09:59:32;76515.47;;;-3.31
84287;BMP280;74445;55.252;61.092;2023-12-28T10:02:00;77422.34;;;-3.37
84287;BMP280;74445;55.252;61.092;2023-12-28T10:04:28;78273.13;;;-3.43
84287;BMP280;74445;55.252;61.092;2023-12-28T10:06:56;79242.13;;;-3.47
84287;BMP280;74445;55.252;61.092;2023-12-28T10:09:24;80315.13;;;-3.54
84287;BMP280;74445;55.252;61.092;2023-12-28T10:11:53;81852.91;;;-3.61
84287;BMP280;74445;55.252;61.092;2023-12-28T10:14:20;83578.03;;;-3.68
84287;BMP280;74445;55.252;61.092;2023-12-28T10:16:47;85297.19;;;-3.75
84287;BMP280;74445;55.252;61.092;2023-12-28T10:19:14;87252.66;;;-3.79
84287;BMP280;74445;55.252;61.092;2023-12-28T10:21:42;89124.59;;;-3.87
84287;BMP280;74445;55.252;61.092;2023-12-28T10:24:12;90934.34;;;-3.92
84287;BMP280;74445;55.252;61.092;2023-12-28T10:26:39;92898.88;;;-3.99
84287;BMP280;74445;55.252;61.092;2023-12-28T10:29:05;94788.41;;;-4.04
84287;BMP280;74445;55.252;61.092;2023-12-28T10:31:31;97048.13;;;-4.10
84287;BMP280;74445;55.252;61.092;2023-12-28T10:33:58;99219.84;;;-4.16
84287;BMP280;74445;55.252;61.092;2023-12-28T10:36:29;101674.69;;;-4.22
84287;BMP280;74445;55.252;61.092;2023-12-28T10:38:57;104631.47;;;-4.28
84287;BMP280;74445;55.252;61.092;2023-12-28T10:41:28;107164.78;;;-4.36
84287;BMP280;74445;55.252;61.092;2023-12-28T10:44:02;110747.63;;;-4.44
84287;BMP280;74445;55.252;61.092;2023-12-28T10:46:31;113624.38;;;-4.53
84287;BMP280;74445;55.252;61.092;2023-12-28T10:49:02;116866.09;;;-4.60
84287;BMP280;74445;55.252;61.092;2023-12-28T10:51:34;121367.88;;;-4.68
84287;BMP280;74445;55.252;61.092;2023-12-28T10:54:07;125705.19;;;-4.78
84287;BMP280;74445;55.252;61.092;2023-12-28T10:56:44;128516.38;;;-4.87
84287;BMP280;74445;55.252;61.092;2023-12-28T10:59:18;129129.03;;;-4.95
84287;BMP280;74445;55.252;61.092;2023-12-28T11:01:47;129110.50;;;-5.03
84287;BMP280;74445;55.252;61.092;2023-12-28T11:04:21;130029.66;;;-5.14
84287;BMP280;74445;55.252;61.092;2023-12-28T11:06:51;132212.34;;;-5.22
84287;BMP280;74445;55.252;61.092;2023-12-28T11:09:18;132824.19;;;-5.29
84287;BMP280;74445;55.252;61.092;2023-12-28T11:11:49;134379.78;;;-5.36
84287;BMP280;74445;55.252;61.092;2023-12-28T11:14:16;134991.28;;;-5.44
84287;BMP280;74445;55.252;61.092;2023-12-28T11:16:43;137484.31;;;-5.53
84287;BMP280;74445;55.252;61.092;2023-12-28T11:19:11;140917.97;;;-5.62
84287;BMP280;74445;55.252;61.092;2023-12-28T11:21:38;142171.03;;;-5.64
84287;BMP280;74445;55.252;61.092;2023-12-28T11:24:05;142794.56;;;-5.66
84287;BMP280;74445;55.252;61.092;2023-12-28T11:26:33;143415.63;;;-5.69
84287;BMP280;74445;55.252;61.092;2023-12-28T11:29:04;143712.84;;;-5.76
84287;BMP280;74445;55.252;61.092;2023-12-28T11:31:32;143710.53;;;-5.78
84287;BMP280;74445;55.252;61.092;2023-12-28T11:34:04;143703.28;;;-5.81
84287;BMP280;74445;55.252;61.092;2023-12-28T11:36:34;143694.81;;;-5.84
84287;BMP280;74445;55.252;61.092;2023-12-28T11:39:06;143694.81;;;-5.84
84287;BMP280;74445;55.252;61.092;2023-12-28T11:41:33;143689.97;;;-5.86
84287;BMP280;74445;55.252;61.092;2023-12-28T11:44:04;143682.72;;;-5.89
84287;BMP280;74445;55.252;61.092;2023-12-28T11:46:32;143680.31;;;-5.90
84287;BMP280;74445;55.252;61.092;2023-12-28T11:49:05;143679.13;;;-5.91
84287;BMP280;74445;55.252;61.092;2023-12-28T11:51:32;143670.66;;;-5.94
84287;BMP280;74445;55.252;61.092;2023-12-28T11:53:59;143662.22;;;-5.98
84287;BMP280;74445;55.252;61.092;2023-12-28T11:56:26;143652.56;;;-6.02
84287;BMP280;74445;55.252;61.092;2023-12-28T11:58:53;143642.88;;;-6.06
84287;BMP280;74445;55.252;61.092;2023-12-28T12:01:21;143646.50;;;-6.04
84287;BMP280;74445;55.252;61.092;2023-12-28T12:03:47;143642.88;;;-6.06
84287;BMP280;74445;55.252;61.092;2023-12-28T12:06:15;143639.25;;;-6.07
84287;BMP280;74445;55.252;61.092;2023-12-28T12:08:45;143640.47;;;-6.07
84287;BMP280;74445;55.252;61.092;2023-12-28T12:11:13;143633.22;;;-6.10
84287;BMP280;74445;55.252;61.092;2023-12-28T12:13:40;143630.81;;;-6.11
84287;BMP280;74445;55.252;61.092;2023-12-28T12:16:07;143632.00;;;-6.10
84287;BMP280;74445;55.252;61.092;2023-12-28T12:18:35;143633.22;;;-6.10
84287;BMP280;74445;55.252;61.092;2023-12-28T12:21:02;143628.41;;;-6.12
84287;BMP280;74445;55.252;61.092;2023-12-28T12:23:29;143633.22;;;-6.10
84287;BMP280;74445;55.252;61.092;2023-12-28T12:25:56;143632.00;;;-6.10
84287;BMP280;74445;55.252;61.092;2023-12-28T12:28:22;143629.56;;;-6.11
84287;BMP280;74445;55.252;61.092;2023-12-28T12:30:54;143623.56;;;-6.14
84287;BMP280;74445;55.252;61.092;2023-12-28T12:33:21;143623.56;;;-6.14
84287;BMP280;74445;55.252;61.092;2023-12-28T12:35:50;143622.34;;;-6.14
84287;BMP280;74445;55.252;61.092;2023-12-28T12:38:17;143618.72;;;-6.16
84287;BMP280;74445;55.252;61.092;2023-12-28T12:40:43;143618.72;;;-6.16
84287;BMP280;74445;55.252;61.092;2023-12-28T12:43:10;143615.09;;;-6.17
84287;BMP280;74445;55.252;61.092;2023-12-28T12:45:37;143616.31;;;-6.17
84287;BMP280;74445;55.252;61.092;2023-12-28T12:48:05;143619.91;;;-6.15
84287;BMP280;74445;55.252;61.092;2023-12-28T12:50:31;143617.50;;;-6.16
84287;BMP280;74445;55.252;61.092;2023-12-28T12:53:00;143623.56;;;-6.14
84287;BMP280;74445;55.252;61.092;2023-12-28T12:55:27;143618.72;;;-6.16
84287;BMP280;74445;55.252;61.092;2023-12-28T12:57:54;143613.91;;;-6.18
84287;BMP280;74445;55.252;61.092;2023-12-28T13:00:22;143618.72;;;-6.16
84287;BMP280;74445;55.252;61.092;2023-12-28T13:02:49;143623.56;;;-6.14
84287;BMP280;74445;55.252;61.092;2023-12-28T13:05:17;143623.56;;;-6.14
84287;BMP280;74445;55.252;61.092;2023-12-28T13:07:44;143619.91;;;-6.15
84287;BMP280;74445;55.252;61.092;2023-12-28T13:10:13;143613.91;;;-6.18
84287;BMP280;74445;55.252;61.092;2023-12-28T13:12:39;143607.84;;;-6.20
84287;BMP280;74445;55.252;61.092;2023-12-28T13:15:06;143612.66;;;-6.18
84287;BMP280;74445;55.252;61.092;2023-12-28T13:17:35;143616.31;;;-6.17
84287;BMP280;74445;55.252;61.092;2023-12-28T13:20:03;143617.50;;;-6.16
84287;BMP280;74445;55.252;61.092;2023-12-28T13:22:30;143615.09;;;-6.17
84287;BMP280;74445;55.252;61.092;2023-12-28T13:24:56;143609.06;;;-6.20
84287;BMP280;74445;55.252;61.092;2023-12-28T13:27:24;143610.25;;;-6.19
84287;BMP280;74445;55.252;61.092;2023-12-28T13:29:51;143609.06;;;-6.20
84287;BMP280;74445;55.252;61.092;2023-12-28T13:32:17;143609.06;;;-6.20
84287;BMP280;74445;55.252;61.092;2023-12-28T13:34:44;143609.06;;;-6.20
84287;BMP280;74445;55.252;61.092;2023-12-28T13:37:10;143604.25;;;-6.22
84287;BMP280;74445;55.252;61.092;2023-12-28T13:39:37;143604.25;;;-6.22
84287;BMP280;74445;55.252;61.092;2023-12-28T13:42:05;143594.59;;;-6.25
84287;BMP280;74445;55.252;61.092;2023-12-28T13:44:34;143587.34;;;-6.28
84287;BMP280;74445;55.252;61.092;2023-12-28T13:47:04;143581.28;;;-6.31
84287;BMP280;74445;55.252;61.092;2023-12-28T13:49:33;143566.78;;;-6.37
84287;BMP280;74445;55.252;61.092;2023-12-28T13:52:00;143562.00;;;-6.39
84287;BMP280;74445;55.252;61.092;2023-12-28T13:54:26;143558.38;;;-6.40
84287;BMP280;74445;55.252;61.092;2023-12-28T13:56:54;143553.53;;;-6.42
84287;BMP280;74445;55.252;61.092;2023-12-28T13:59:23;143537.88;;;-6.49
84287;BMP280;74445;55.252;61.092;2023-12-28T14:01:51;143530.63;;;-6.52
84287;BMP280;74445;55.252;61.092;2023-12-28T14:04:18;143518.53;;;-6.57
84287;BMP280;74445;55.252;61.092;2023-12-28T14:06:44;143504.06;;;-6.63
84287;BMP280;74445;55.252;61.092;2023-12-28T14:09:11;143496.81;;;-6.66
84287;BMP280;74445;55.252;61.092;2023-12-28T14:11:38;143481.09;;;-6.72
84287;BMP280;74445;55.252;61.092;2023-12-28T14:14:04;143478.69;;;-6.73
84287;BMP280;74445;55.252;61.092;2023-12-28T14:16:31;143475.09;;;-6.75
84287;BMP280;74445;55.252;61.092;2023-12-28T14:18:59;143464.22;;;-6.79
84287;BMP280;74445;55.252;61.092;2023-12-28T14:21:26;143464.22;;;-6.79
84287;BMP280;74445;55.252;61.092;2023-12-28T14:23:53;143450.97;;;-6.85
84287;BMP280;74445;55.252;61.092;2023-12-28T14:26:21;143440.06;;;-6.89
84287;BMP280;74445;55.252;61.092;2023-12-28T14:28:48;143435.25;;;-6.91
84287;BMP280;74445;55.252;61.092;2023-12-28T14:31:16;143431.66;;;-6.93
84287;BMP280;74445;55.252;61.092;2023-12-28T14:33:43;143419.59;;;-6.98
84287;BMP280;74445;55.252;61.092;2023-12-28T14:36:25;143406.28;;;-7.03
84287;BMP280;74445;55.252;61.092;2023-12-28T14:38:54;143405.09;;;-7.04
84287;BMP280;74445;55.252;61.092;2023-12-28T14:41:20;143397.84;;;-7.07
84287;BMP280;74445;55.252;61.092;2023-12-28T14:43:46;143389.38;;;-7.10
84287;BMP280;74445;55.252;61.092;2023-12-28T14:46:13;143389.38;;;-7.10
84287;BMP280;74445;55.252;61.092;2023-12-28T14:48:39;143379.75;;;-7.14
84287;BMP280;74445;55.252;61.092;2023-12-28T14:51:06;143370.09;;;-7.18
84287;BMP280;74445;55.252;61.092;2023-12-28T14:53:34;143367.69;;;-7.19
84287;BMP280;74445;55.252;61.092;2023-12-28T14:56:00;143368.91;;;-7.19
84287;BMP280;74445;55.252;61.092;2023-12-28T14:58:27;143365.25;;;-7.20